Time;durP1;ratioP1;P1;durP2;ratioP2;P2;SDS_P1;SDS_P2;PMS_P1;PMS_P2;Temp;Humidity;BMP_temperature;BMP_pressure;BME280_temperature;BME280_humidity;BME280_pressure;Samples;Min_cycle;Max_cycle;Signal;HPM_P1;HPM_P2
2022/04/10 00:00:59;;;;;;;16.58;2.05;;;;;;;1.08;96.24;101386.22;2063139;28;46469;-66
2022/04/10 00:02:01;;;;;;;13.57;1.90;;;;;;;1.07;95.88;101388.81;2062344;28;44885;-66
2022/04/10 00:03:04;;;;;;;16.75;1.95;;;;;;;1.09;95.82;101380.06;2064321;28;20035;-66
2022/04/10 00:04:06;;;;;;;12.32;2.10;;;;;;;1.15;96.18;101384.63;2062646;28;44852;-66
2022/04/10 00:05:09;;;;;;;12.18;1.70;;;;;;;1.17;95.77;101387.28;2062593;28;45095;-66
2022/04/10 00:06:10;;;;;;;15.80;1.90;;;;;;;1.20;95.88;101384.72;2062881;28;20150;-66
2022/04/10 00:07:12;;;;;;;11.90;1.95;;;;;;;1.24;95.63;101382.19;2063933;28;21130;-66
2022/04/10 00:08:14;;;;;;;16.42;2.00;;;;;;;1.25;95.74;101385.72;2062626;28;45613;-66
2022/04/10 00:09:16;;;;;;;15.05;2.00;;;;;;;1.27;95.59;101384.00;2062728;28;44670;-66
2022/04/10 00:10:17;;;;;;;13.50;2.10;;;;;;;1.25;95.22;101378.69;2062564;28;43727;-66
2022/04/10 00:11:19;;;;;;;11.65;1.75;;;;;;;1.32;95.19;101374.44;2062919;28;46650;-67
2022/04/10 00:12:21;;;;;;;13.02;1.98;;;;;;;1.33;95.44;101376.22;2062468;28;43463;-66
2022/04/10 00:13:23;;;;;;;13.18;1.63;;;;;;;1.35;95.14;101379.78;2063360;28;44063;-66
2022/04/10 00:14:25;;;;;;;10.80;1.42;;;;;;;1.35;95.04;101382.44;2063068;28;46162;-66
2022/04/10 00:15:27;;;;;;;12.13;1.55;;;;;;;1.36;95.01;101373.63;2062881;28;45122;-66
2022/04/10 00:16:29;;;;;;;11.82;1.80;;;;;;;1.37;95.09;101375.44;2062899;28;46584;-66
2022/04/10 00:17:31;;;;;;;12.00;1.80;;;;;;;1.39;95.08;101399.22;2063656;28;35148;-66
2022/04/10 00:18:36;;;;;;;12.18;1.83;;;;;;;1.40;94.85;101398.34;2062367;28;43893;-67
2022/04/10 00:19:39;;;;;;;22.13;2.08;;;;;;;1.46;94.56;101398.50;2062547;28;44891;-66
2022/04/10 00:20:41;;;;;;;15.23;1.98;;;;;;;1.46;95.08;101403.78;2063307;28;20039;-66
2022/04/10 00:21:45;;;;;;;15.40;1.92;;;;;;;1.50;94.97;101409.13;2062846;28;46169;-66
2022/04/10 00:22:49;;;;;;;12.90;2.05;;;;;;;1.51;94.91;101410.94;2063095;28;43300;-66
2022/04/10 00:23:50;;;;;;;13.15;1.70;;;;;;;1.51;94.91;101410.94;2063225;28;36483;-66
2022/04/10 00:24:52;;;;;;;11.00;1.38;;;;;;;1.52;95.01;101409.16;2062673;28;44912;-66
2022/04/10 00:25:53;;;;;;;11.30;1.73;;;;;;;1.55;94.78;101411.88;2062813;28;42985;-66
2022/04/10 00:26:55;;;;;;;13.18;1.75;;;;;;;1.57;94.99;101414.56;2054005;28;21552;-66
2022/04/10 00:27:57;;;;;;;14.68;1.60;;;;;;;1.59;94.91;101412.84;2055366;28;20230;-66
2022/04/10 00:29:01;;;;;;;10.13;1.60;;;;;;;1.59;94.69;101407.56;2062597;28;42943;-66
2022/04/10 00:30:03;;;;;;;14.23;1.67;;;;;;;1.66;95.08;101406.84;2062921;28;20941;-67
2022/04/10 00:31:08;;;;;;;12.27;1.85;;;;;;;1.65;95.00;101407.66;2063366;28;20089;-67
2022/04/10 00:32:11;;;;;;;11.27;1.65;;;;;;;1.67;95.24;101396.31;2063449;28;20052;-66
2022/04/10 00:33:13;;;;;;;12.05;1.75;;;;;;;1.69;94.48;101401.63;2063872;28;20947;-66
2022/04/10 00:34:15;;;;;;;16.33;1.98;;;;;;;1.69;94.36;101399.88;2061875;28;45347;-67
2022/04/10 00:35:16;;;;;;;13.70;1.67;;;;;;;1.72;94.22;101404.31;2062303;28;34457;-66
2022/04/10 00:36:18;;;;;;;15.43;1.70;;;;;;;1.70;93.88;101401.63;2063240;28;20165;-66
2022/04/10 00:37:20;;;;;;;11.57;1.88;;;;;;;1.68;94.24;101400.72;2061768;28;45405;-66
2022/04/10 00:38:22;;;;;;;11.70;1.73;;;;;;;1.68;93.98;101399.84;2062002;28;46129;-66
2022/04/10 00:39:24;;;;;;;11.82;1.42;;;;;;;1.66;94.07;101401.56;2062756;28;45043;-66
2022/04/10 00:40:26;;;;;;;11.32;1.80;;;;;;;1.64;94.40;101398.00;2062675;28;45153;-67
2022/04/10 00:41:30;;;;;;;8.15;1.25;;;;;;;1.59;94.20;101397.00;2062691;28;20987;-66
2022/04/10 00:42:38;;;;;;;15.52;2.05;;;;;;;1.58;94.23;101396.13;2062857;28;20937;-66
2022/04/10 00:44:05;;;;;;;11.13;1.90;;;;;;;1.51;94.15;101396.84;2063188;28;32036;-66
2022/04/10 00:45:11;;;;;;;13.30;2.20;;;;;;;1.46;94.42;101387.94;2061849;28;43435;-66
2022/04/10 00:46:13;;;;;;;13.45;1.52;;;;;;;1.39;94.61;101400.09;2063139;28;30140;-66
2022/04/10 00:47:16;;;;;;;13.77;2.10;;;;;;;1.39;94.49;101405.38;2063671;28;20039;-66
2022/04/10 00:48:17;;;;;;;11.82;1.98;;;;;;;1.34;94.15;101401.75;2063148;28;44442;-66
2022/04/10 00:49:20;;;;;;;13.60;1.95;;;;;;;1.27;95.09;101398.06;2061507;28;46847;-65
2022/04/10 00:50:21;;;;;;;8.32;1.65;;;;;;;1.27;94.94;101405.97;2061997;28;44731;-66
2022/04/10 00:52:48;;;;;;;13.18;1.88;;;;;;;1.20;95.29;101400.53;2062708;28;37987;-65
2022/04/10 00:53:50;;;;;;;14.57;2.17;;;;;;;1.19;95.49;101399.66;2061473;28;45137;-66
2022/04/10 00:54:52;;;;;;;12.43;1.98;;;;;;;1.18;95.73;101402.25;2061271;28;46782;-66
2022/04/10 00:55:53;;;;;;;8.82;1.85;;;;;;;1.12;95.82;101395.97;2061568;28;44267;-65
2022/04/10 00:56:57;;;;;;;13.57;2.40;;;;;;;1.08;95.38;101395.91;2061861;28;44076;-65
2022/04/10 00:58:00;;;;;;;14.65;2.08;;;;;;;1.02;95.37;101399.25;2061718;28;44993;-65
2022/04/10 00:59:03;;;;;;;13.73;1.95;;;;;;;0.98;95.34;101400.03;2053464;28;44874;-66
2022/04/10 01:00:10;;;;;;;9.52;1.83;;;;;;;0.96;95.61;101393.84;2054392;28;27512;-65
2022/04/10 01:01:12;;;;;;;13.80;2.08;;;;;;;0.93;95.72;101393.75;2062858;28;44608;-65
2022/04/10 01:02:16;;;;;;;10.38;1.90;;;;;;;0.93;96.21;101393.75;2061858;28;44407;-66
2022/04/10 01:03:18;;;;;;;9.23;1.70;;;;;;;0.87;95.97;101398.91;2062182;28;46009;-66
2022/04/10 01:04:21;;;;;;;14.75;2.30;;;;;;;0.90;96.01;101397.22;2062054;28;44226;-66
2022/04/10 01:05:22;;;;;;;15.70;2.13;;;;;;;0.89;96.52;101400.72;2062566;28;28042;-66
2022/04/10 01:06:25;;;;;;;12.23;2.08;;;;;;;0.85;96.13;101397.97;2062326;28;21080;-65
2022/04/10 01:07:28;;;;;;;11.88;2.40;;;;;;;0.80;95.96;101399.59;2054904;28;20059;-65
2022/04/10 01:08:30;;;;;;;9.95;2.08;;;;;;;0.78;96.21;101403.97;2046673;28;20078;-66
2022/04/10 01:09:33;;;;;;;11.88;2.05;;;;;;;0.82;96.56;101411.06;2054490;28;20078;-66
2022/04/10 01:10:35;;;;;;;14.18;2.22;;;;;;;0.84;96.75;101407.59;2062086;28;34217;-65
2022/04/10 01:11:36;;;;;;;16.42;2.45;;;;;;;0.86;97.13;101397.09;2054484;28;20170;-65
2022/04/10 01:12:39;;;;;;;11.40;2.15;;;;;;;0.86;96.68;101407.66;2046436;28;20039;-66
2022/04/10 01:13:47;;;;;;;17.13;2.60;;;;;;;0.87;96.35;101406.81;2055847;28;20059;-65
2022/04/10 01:14:50;;;;;;;13.20;1.80;;;;;;;0.95;96.99;101407.88;2056306;28;20845;-66
2022/04/10 01:15:55;;;;;;;14.50;2.13;;;;;;;0.98;97.26;101413.22;2048445;28;20048;-66
2022/04/10 01:16:58;;;;;;;10.35;1.75;;;;;;;0.97;97.31;101424.63;2056237;28;20081;-65
2022/04/10 01:17:59;;;;;;;15.15;2.17;;;;;;;1.01;97.47;101418.56;2056106;28;20078;-65
2022/04/10 01:19:04;;;;;;;18.58;2.70;;;;;;;1.04;97.28;101423.94;2056044;28;20948;-66
2022/04/10 01:20:09;;;;;;;14.57;2.30;;;;;;;1.06;96.95;101419.59;2064153;28;20186;-65
2022/04/10 01:21:23;;;;;;;14.00;2.38;;;;;;;1.10;96.95;101428.47;2063645;28;20050;-65
2022/04/10 01:22:34;;;;;;;22.52;2.50;;;;;;;1.13;96.92;101432.06;2055977;28;20160;-66
2022/04/10 01:23:40;;;;;;;15.18;2.10;;;;;;;1.17;97.40;101429.47;2057608;28;20139;-65
2022/04/10 01:24:43;;;;;;;15.15;2.63;;;;;;;1.18;97.15;101426.00;2055913;28;20043;-66
2022/04/10 01:25:50;;;;;;;12.40;2.25;;;;;;;1.20;97.24;101427.78;2048668;28;21008;-67
2022/04/10 01:26:52;;;;;;;11.65;2.17;;;;;;;1.22;97.24;101430.47;2047725;28;20181;-67
2022/04/10 01:27:59;;;;;;;16.15;2.63;;;;;;;1.26;96.88;101429.72;2056374;28;20045;-66
2022/04/10 01:29:10;;;;;;;15.35;2.38;;;;;;;1.29;96.68;101424.47;2063740;28;20900;-66
2022/04/10 01:30:14;;;;;;;18.15;3.38;;;;;;;1.30;97.00;101426.28;2056015;28;20047;-66
2022/04/10 01:31:19;;;;;;;17.42;2.47;;;;;;;1.29;96.80;101430.66;2056964;28;20039;-66
2022/04/10 01:32:20;;;;;;;17.63;2.50;;;;;;;1.31;97.01;101428.97;2063861;28;28682;-65
2022/04/10 01:33:22;;;;;;;18.42;2.50;;;;;;;1.32;96.83;101427.19;2063944;28;42859;-66
2022/04/10 01:34:27;;;;;;;10.15;2.13;;;;;;;1.33;96.59;101434.28;2063822;28;20145;-66
2022/04/10 01:35:32;;;;;;;15.15;2.30;;;;;;;1.32;96.74;101441.28;2063890;28;20039;-65
2022/04/10 01:36:36;;;;;;;14.95;2.53;;;;;;;1.31;96.28;101438.59;2063688;28;20051;-65
2022/04/10 01:37:39;;;;;;;15.57;2.42;;;;;;;1.28;96.21;101442.06;2064015;28;20055;-65
2022/04/10 01:38:44;;;;;;;15.93;2.35;;;;;;;1.25;96.31;101449.00;2056039;28;20087;-65
2022/04/10 01:39:46;;;;;;;18.42;2.60;;;;;;;1.23;95.88;101442.81;2047661;28;20947;-66
2022/04/10 01:40:48;;;;;;;16.25;2.67;;;;;;;1.19;95.90;101441.84;2055101;28;44081;-65
2022/04/10 01:41:50;;;;;;;11.80;2.28;;;;;;;1.13;96.02;101445.25;2064738;28;20042;-65
2022/04/10 01:42:57;;;;;;;13.75;2.03;;;;;;;1.10;96.19;101439.88;2063274;28;20069;-65
2022/04/10 01:43:59;;;;;;;11.68;2.47;;;;;;;1.13;96.00;101439.97;2063646;28;20051;-65
2022/04/10 01:45:03;;;;;;;12.00;1.75;;;;;;;1.08;96.21;101435.44;2056046;28;20991;-65
2022/04/10 01:46:06;;;;;;;10.00;1.60;;;;;;;1.04;96.33;101430.94;2055823;28;20125;-68
2022/04/10 01:47:07;;;;;;;10.98;2.03;;;;;;;1.01;96.16;101438.78;2063754;28;20085;-65
2022/04/10 01:48:09;;;;;;;12.57;1.88;;;;;;;0.93;96.31;101439.50;2063862;28;44434;-65
2022/04/10 01:49:11;;;;;;;13.73;2.28;;;;;;;0.95;96.42;101432.50;2063733;28;46480;-66
2022/04/10 01:50:13;;;;;;;8.98;1.50;;;;;;;0.86;96.01;101428.75;2055235;28;44804;-66
2022/04/10 01:51:16;;;;;;;13.48;2.28;;;;;;;0.84;96.09;101430.44;2047858;28;20097;-65
2022/04/10 01:52:17;;;;;;;11.65;2.00;;;;;;;0.82;96.11;101433.03;2055560;28;33691;-66
2022/04/10 01:53:19;;;;;;;9.38;1.77;;;;;;;0.75;96.44;101432.03;2064378;28;20043;-65
2022/04/10 01:54:21;;;;;;;8.68;1.85;;;;;;;0.76;96.08;101433.78;2064098;28;20141;-65
2022/04/10 01:55:23;;;;;;;12.20;1.80;;;;;;;0.70;96.44;101432.72;2063871;28;20054;-66
2022/04/10 01:56:25;;;;;;;14.30;2.35;;;;;;;0.73;96.33;101432.81;2063611;28;20023;-65
2022/04/10 01:57:27;;;;;;;10.77;2.00;;;;;;;0.74;96.62;101429.34;2063683;28;20153;-65
2022/04/10 01:58:31;;;;;;;10.55;2.20;;;;;;;0.78;97.28;101428.56;2055733;28;20040;-66
2022/04/10 01:59:32;;;;;;;19.48;2.58;;;;;;;0.80;96.98;101428.59;2055725;28;21057;-66
2022/04/10 02:00:34;;;;;;;16.02;2.65;;;;;;;0.81;97.05;101425.09;2063840;28;20129;-65
2022/04/10 02:01:36;;;;;;;12.30;2.00;;;;;;;0.85;97.41;101427.84;2063652;28;20031;-66
2022/04/10 02:02:38;;;;;;;10.15;1.77;;;;;;;0.86;96.68;101428.75;2063288;28;31008;-65
2022/04/10 02:03:41;;;;;;;14.73;2.25;;;;;;;0.89;97.24;101423.56;2062922;28;43526;-65
2022/04/10 02:04:42;;;;;;;12.13;2.60;;;;;;;0.89;97.16;101424.44;2063848;28;21952;-66
2022/04/10 02:05:44;;;;;;;15.80;2.58;;;;;;;0.95;97.21;101423.69;2064360;28;20054;-66
2022/04/10 02:06:46;;;;;;;14.88;1.90;;;;;;;0.95;96.89;101421.97;2062339;28;45856;-65
2022/04/10 02:07:52;;;;;;;10.02;2.00;;;;;;;0.95;96.75;101428.97;2063721;28;24329;-66
2022/04/10 02:08:54;;;;;;;13.05;2.50;;;;;;;0.98;97.22;101429.03;2063914;28;20043;-66
2022/04/10 02:09:56;;;;;;;14.68;2.30;;;;;;;0.99;97.04;101427.28;2055507;28;20253;-66
2022/04/10 02:10:58;;;;;;;14.30;1.88;;;;;;;0.98;96.98;101426.41;2054243;28;44142;-65
2022/04/10 02:11:59;;;;;;;13.23;2.28;;;;;;;1.02;96.59;101419.47;2054476;28;43165;-65
2022/04/10 02:13:01;;;;;;;13.18;2.03;;;;;;;1.03;96.73;101422.13;2055764;28;20051;-66
2022/04/10 02:14:03;;;;;;;10.73;1.85;;;;;;;1.04;97.16;101429.22;2063579;28;36030;-66
2022/04/10 02:15:05;;;;;;;10.02;1.65;;;;;;;1.06;96.66;101424.84;2056105;28;20047;-65
2022/04/10 02:16:11;;;;;;;9.98;1.98;;;;;;;1.06;96.27;101427.50;2055542;28;20912;-66
2022/04/10 02:17:13;;;;;;;11.18;1.90;;;;;;;1.07;96.56;101429.25;2055342;28;33963;-65
2022/04/10 02:18:20;;;;;;;11.95;2.17;;;;;;;1.11;96.36;101427.59;2056262;28;20137;-66
2022/04/10 02:19:21;;;;;;;16.73;2.83;;;;;;;1.09;96.42;101427.53;2063554;28;21036;-65
2022/04/10 02:20:23;;;;;;;16.20;2.13;;;;;;;1.13;96.42;101424.16;2063052;28;43993;-65
2022/04/10 02:21:25;;;;;;;10.07;2.20;;;;;;;1.08;96.25;101423.13;2055217;28;20086;-65
2022/04/10 02:22:26;;;;;;;13.05;2.35;;;;;;;1.08;96.54;101425.78;2055686;28;20135;-65
2022/04/10 02:23:31;;;;;;;8.18;1.55;;;;;;;1.00;96.41;101432.59;2055240;28;20059;-65
2022/04/10 02:24:32;;;;;;;12.25;2.10;;;;;;;0.97;96.01;101427.28;2055228;28;29197;-66
2022/04/10 02:25:34;;;;;;;13.27;2.03;;;;;;;0.94;96.13;101427.19;2062504;28;45724;-65
2022/04/10 02:26:36;;;;;;;12.85;1.92;;;;;;;0.88;95.94;101433.22;2055485;28;20071;-65
2022/04/10 02:27:38;;;;;;;8.95;1.63;;;;;;;0.85;95.85;101424.34;2055829;28;20102;-66
2022/04/10 02:28:41;;;;;;;11.77;2.25;;;;;;;0.85;95.98;101421.69;2063213;28;44472;-66
2022/04/10 02:29:43;;;;;;;10.40;1.83;;;;;;;0.84;96.58;101431.34;2054505;28;44542;-66
2022/04/10 02:30:44;;;;;;;11.35;1.98;;;;;;;0.84;96.15;101430.44;2055909;28;20897;-65
2022/04/10 02:31:46;;;;;;;18.10;2.60;;;;;;;0.86;96.52;101431.38;2063231;28;20046;-65
2022/04/10 02:32:50;;;;;;;12.40;1.80;;;;;;;0.85;96.29;101434.88;2063516;28;20055;-64
2022/04/10 02:33:52;;;;;;;10.50;2.03;;;;;;;0.88;96.58;101437.56;2063105;28;23385;-66
2022/04/10 02:34:54;;;;;;;11.30;1.90;;;;;;;0.82;96.60;101427.78;2063935;28;20181;-65
2022/04/10 02:35:59;;;;;;;9.77;2.13;;;;;;;0.80;96.39;101432.13;2055359;28;20183;-66
2022/04/10 02:37:02;;;;;;;16.75;2.20;;;;;;;0.82;96.25;101437.44;2056179;28;20111;-67
2022/04/10 02:38:05;;;;;;;9.48;1.90;;;;;;;0.76;96.05;101433.78;2056083;28;20039;-68
2022/04/10 02:39:06;;;;;;;14.55;2.10;;;;;;;0.73;96.12;101433.69;2056013;28;20916;-65
2022/04/10 02:40:09;;;;;;;14.68;2.08;;;;;;;0.70;96.13;101427.47;2055382;28;20897;-65
2022/04/10 02:41:13;;;;;;;13.07;1.77;;;;;;;0.71;95.63;101432.78;2055850;28;21090;-66
2022/04/10 02:42:15;;;;;;;11.15;1.88;;;;;;;0.68;96.38;101426.53;2063013;28;20039;-66
2022/04/10 02:43:16;;;;;;;14.02;2.05;;;;;;;0.64;96.24;101430.84;2055342;28;20047;-66
2022/04/10 02:44:20;;;;;;;14.00;2.08;;;;;;;0.62;96.27;101431.66;2055627;28;20057;-66
2022/04/10 02:45:22;;;;;;;12.98;1.90;;;;;;;0.56;96.18;101435.91;2062307;28;45353;-66
2022/04/10 02:46:25;;;;;;;12.82;1.98;;;;;;;0.54;95.75;101431.47;2054935;28;23040;-66
2022/04/10 02:47:27;;;;;;;9.70;1.73;;;;;;;0.50;95.77;101441.03;2055212;28;20051;-66
2022/04/10 02:48:29;;;;;;;15.25;2.03;;;;;;;0.44;96.11;101435.59;2063218;28;22351;-66
2022/04/10 02:49:34;;;;;;;16.05;1.98;;;;;;;0.47;96.43;101445.34;2063727;28;20046;-65
2022/04/10 02:50:39;;;;;;;15.55;2.00;;;;;;;0.48;96.72;101447.09;2062683;28;42047;-66
2022/04/10 02:51:42;;;;;;;14.55;2.50;;;;;;;0.47;97.13;101437.44;2063374;28;20035;-65
2022/04/10 02:52:44;;;;;;;15.35;1.92;;;;;;;0.44;96.68;101442.63;2063363;28;21191;-65
2022/04/10 02:53:46;;;;;;;14.70;2.35;;;;;;;0.44;96.39;101439.97;2063420;28;20892;-65
2022/04/10 02:54:48;;;;;;;16.63;2.38;;;;;;;0.45;96.52;101441.75;2063136;28;20935;-65
2022/04/10 02:55:50;;;;;;;15.23;1.85;;;;;;;0.40;96.64;101443.41;2062959;28;20035;-65
2022/04/10 02:56:53;;;;;;;12.05;2.08;;;;;;;0.36;96.55;101445.06;2054503;28;21066;-65
2022/04/10 02:57:54;;;;;;;12.07;1.90;;;;;;;0.31;96.82;101441.41;2055166;28;20170;-66
2022/04/10 02:58:57;;;;;;;15.80;1.98;;;;;;;0.28;96.47;101442.19;2063188;28;20172;-66
2022/04/10 02:59:59;;;;;;;11.35;2.00;;;;;;;0.29;96.61;101440.47;2063958;28;20116;-66
2022/04/10 03:01:01;;;;;;;20.90;2.45;;;;;;;0.29;96.93;101438.72;2063338;28;20185;-65
2022/04/10 03:02:04;;;;;;;16.50;2.40;;;;;;;0.27;96.79;101440.44;2063451;28;20816;-65
2022/04/10 03:03:06;;;;;;;14.75;2.22;;;;;;;0.27;97.25;101440.44;2063039;28;20749;-65
2022/04/10 03:04:08;;;;;;;12.40;2.50;;;;;;;0.25;96.71;101442.13;2063097;28;20042;-68
2022/04/10 03:05:10;;;;;;;18.92;3.05;;;;;;;0.23;96.99;101441.16;2063654;28;20114;-67
2022/04/10 03:06:12;;;;;;;13.52;2.67;;;;;;;0.21;97.06;101444.63;2063179;28;20153;-67
2022/04/10 03:07:14;;;;;;;14.73;2.92;;;;;;;0.24;96.88;101448.22;2063291;28;20058;-66
2022/04/10 03:08:17;;;;;;;19.35;3.05;;;;;;;0.25;97.37;101442.13;2063509;28;20149;-68
2022/04/10 03:09:19;;;;;;;16.52;3.15;;;;;;;0.23;97.06;101448.19;2062484;28;48933;-65
2022/04/10 03:10:21;;;;;;;18.33;3.03;;;;;;;0.21;97.22;101444.63;2063578;28;21166;-68
2022/04/10 03:11:25;;;;;;;17.33;2.75;;;;;;;0.21;97.07;101440.25;2063323;28;20772;-66
2022/04/10 03:12:27;;;;;;;21.38;3.00;;;;;;;0.26;97.32;101451.78;2063280;28;20177;-67
2022/04/10 03:13:29;;;;;;;21.95;3.03;;;;;;;0.21;97.67;101444.63;2055190;28;20048;-67
2022/04/10 03:14:31;;;;;;;16.92;2.85;;;;;;;0.19;97.47;101439.31;2055374;28;20051;-67
2022/04/10 03:15:33;;;;;;;15.73;2.42;;;;;;;0.15;97.25;101442.72;2054642;28;20119;-67
2022/04/10 03:16:35;;;;;;;18.27;2.95;;;;;;;0.15;97.21;101451.50;2055207;28;20043;-67
2022/04/10 03:17:37;;;;;;;13.98;3.22;;;;;;;0.16;97.56;101447.13;2063146;28;20082;-67
2022/04/10 03:18:39;;;;;;;15.35;3.00;;;;;;;0.17;98.00;101447.16;2055300;28;20461;-67
2022/04/10 03:19:43;;;;;;;15.70;2.70;;;;;;;0.17;97.48;101456.81;2055096;28;20126;-68
2022/04/10 03:20:45;;;;;;;22.85;3.00;;;;;;;0.19;97.62;101457.75;2063514;28;20043;-67
2022/04/10 03:21:47;;;;;;;16.73;2.83;;;;;;;0.11;97.33;101451.38;2062781;28;20939;-67
2022/04/10 03:22:49;;;;;;;20.33;2.83;;;;;;;0.07;97.25;101455.69;2063343;28;20043;-67
2022/04/10 03:23:51;;;;;;;17.80;3.20;;;;;;;0.03;97.52;101456.41;2062912;28;20039;-65
2022/04/10 03:24:53;;;;;;;16.55;3.05;;;;;;;0.07;97.53;101454.75;2063288;28;20046;-67
2022/04/10 03:25:55;;;;;;;21.48;3.25;;;;;;;0.13;97.38;101460.22;2055101;28;20814;-67
2022/04/10 03:26:56;;;;;;;18.05;3.53;;;;;;;0.10;97.52;101462.75;2055030;28;20929;-67
2022/04/10 03:27:58;;;;;;;15.23;3.08;;;;;;;0.12;97.72;101463.69;2063123;28;20062;-67
2022/04/10 03:29:00;;;;;;;20.73;3.33;;;;;;;0.10;97.49;101460.13;2063463;28;20051;-67
2022/04/10 03:30:03;;;;;;;20.25;2.80;;;;;;;0.10;97.38;101465.38;2055041;28;20086;-67
2022/04/10 03:31:07;;;;;;;15.27;3.20;;;;;;;0.08;97.39;101472.34;2055805;28;20098;-67
2022/04/10 03:32:09;;;;;;;23.60;3.25;;;;;;;0.11;97.76;101467.19;2061939;28;45161;-67
2022/04/10 03:33:13;;;;;;;20.08;3.25;;;;;;;0.11;97.54;101465.44;2063660;28;20109;-68
2022/04/10 03:34:15;;;;;;;15.45;2.97;;;;;;;0.13;97.73;101462.84;2055065;28;20092;-67
2022/04/10 03:35:17;;;;;;;18.63;3.50;;;;;;;0.11;97.40;101467.19;2047025;28;20084;-67
2022/04/10 03:36:21;;;;;;;19.75;3.78;;;;;;;0.10;97.74;101461.00;2054468;28;20212;-67
2022/04/10 03:37:23;;;;;;;20.25;3.22;;;;;;;0.10;97.71;101468.03;2063287;28;20051;-67
2022/04/10 03:38:25;;;;;;;23.25;3.60;;;;;;;0.11;97.48;101469.81;2054859;28;20825;-67
2022/04/10 03:39:27;;;;;;;18.52;3.10;;;;;;;0.09;97.59;101471.50;2047196;28;22236;-67
2022/04/10 03:40:30;;;;;;;18.20;3.13;;;;;;;0.12;97.08;101468.94;2055309;28;20039;-67
2022/04/10 03:41:31;;;;;;;15.55;3.08;;;;;;;0.10;97.58;101470.66;2054961;28;34546;-67
2022/04/10 03:42:40;;;;;;;28.00;3.38;;;;;;;0.10;97.69;101471.53;2047305;28;20166;-67
2022/04/10 03:43:43;;;;;;;23.58;2.85;;;;;;;0.13;97.34;101476.91;2056402;28;20115;-66
2022/04/10 03:44:45;;;;;;;14.55;2.47;;;;;;;0.10;97.42;101470.66;2055497;28;20036;-67
2022/04/10 03:45:47;;;;;;;20.98;3.53;;;;;;;0.10;97.62;101476.81;2055546;28;20039;-66
2022/04/10 03:46:49;;;;;;;19.00;3.03;;;;;;;0.15;97.94;101476.94;2062902;28;20039;-66
2022/04/10 03:47:51;;;;;;;23.00;2.85;;;;;;;0.16;97.87;101477.00;2054952;28;21014;-67
2022/04/10 03:48:55;;;;;;;21.85;3.33;;;;;;;0.19;97.67;101478.81;2055222;28;20157;-67
2022/04/10 03:49:57;;;;;;;19.13;3.15;;;;;;;0.19;97.86;101481.44;2063630;28;20046;-67
2022/04/10 03:50:59;;;;;;;21.80;3.55;;;;;;;0.23;98.27;101477.16;2063129;28;20828;-67
2022/04/10 03:52:01;;;;;;;21.80;3.58;;;;;;;0.24;97.87;101482.47;2054287;28;34664;-67
2022/04/10 03:53:04;;;;;;;18.45;3.20;;;;;;;0.26;98.04;101478.13;2054986;28;20899;-66
2022/04/10 03:54:08;;;;;;;18.45;3.55;;;;;;;0.27;97.52;101484.28;2055157;28;20912;-67
2022/04/10 03:55:10;;;;;;;16.27;3.35;;;;;;;0.31;97.96;101488.81;2054946;28;20101;-67
2022/04/10 03:56:12;;;;;;;18.45;3.60;;;;;;;0.30;97.97;101485.25;2062968;28;20046;-67
2022/04/10 03:57:14;;;;;;;24.58;3.88;;;;;;;0.34;97.69;101491.50;2062664;28;34454;-67
2022/04/10 03:58:16;;;;;;;13.88;2.85;;;;;;;0.32;97.40;101482.66;2055018;28;20035;-67
2022/04/10 03:59:18;;;;;;;17.30;2.55;;;;;;;0.35;97.81;101488.03;2055018;28;20047;-67
2022/04/10 04:00:23;;;;;;;20.02;2.83;;;;;;;0.42;97.32;101489.09;2062583;28;35477;-67
2022/04/10 04:01:31;;;;;;;27.63;3.08;;;;;;;0.45;97.75;101492.72;2054198;28;20162;-66
2022/04/10 04:02:34;;;;;;;20.05;3.25;;;;;;;0.48;97.62;101487.50;2046931;28;20122;-67
2022/04/10 04:03:38;;;;;;;14.48;2.75;;;;;;;0.47;97.94;101491.00;2053509;28;45002;-66
2022/04/10 04:04:43;;;;;;;15.90;2.58;;;;;;;0.47;97.30;101491.00;2055069;28;20035;-66
2022/04/10 04:05:46;;;;;;;20.08;3.10;;;;;;;0.51;97.15;101484.97;2055166;28;20044;-68
2022/04/10 04:06:50;;;;;;;19.63;2.45;;;;;;;0.54;97.41;101490.31;2063294;28;20148;-65
2022/04/10 04:07:54;;;;;;;26.50;2.63;;;;;;;0.59;97.29;101495.69;2062626;28;20042;-68
2022/04/10 04:09:02;;;;;;;21.38;2.78;;;;;;;0.62;97.80;101487.88;2063079;28;20178;-67
2022/04/10 04:10:07;;;;;;;24.83;2.95;;;;;;;0.65;96.76;101487.09;2063022;28;20360;-66
2022/04/10 04:11:10;;;;;;;22.67;2.80;;;;;;;0.69;96.81;101495.09;2063085;28;20125;-66
2022/04/10 04:12:13;;;;;;;19.17;2.45;;;;;;;0.66;96.70;101495.00;2062815;28;20886;-67
2022/04/10 04:13:15;;;;;;;18.35;2.30;;;;;;;0.70;96.16;101491.63;2062962;28;20926;-66
2022/04/10 04:14:19;;;;;;;24.15;2.45;;;;;;;0.69;96.16;101489.81;2053802;28;20828;-66
2022/04/10 04:15:21;;;;;;;18.70;2.20;;;;;;;0.73;95.99;101489.03;2047518;28;20798;-66
2022/04/10 04:16:23;;;;;;;14.10;1.95;;;;;;;0.74;95.93;101482.06;2055063;28;20047;-66
2022/04/10 04:17:25;;;;;;;17.25;1.60;;;;;;;0.76;94.81;101491.78;2063004;28;33901;-66
2022/04/10 04:18:27;;;;;;;18.90;2.00;;;;;;;0.74;94.97;101497.88;2063047;28;20162;-66
2022/04/10 04:19:31;;;;;;;12.65;1.75;;;;;;;0.73;95.09;101502.22;2063314;28;20185;-66
2022/04/10 04:20:33;;;;;;;12.52;1.60;;;;;;;0.71;94.33;101503.94;2063195;28;20910;-66
2022/04/10 04:21:36;;;;;;;14.15;1.70;;;;;;;0.70;94.28;101504.81;2054811;28;20047;-66
2022/04/10 04:22:38;;;;;;;10.23;1.40;;;;;;;0.66;94.51;101505.53;2055074;28;20924;-67
2022/04/10 04:23:40;;;;;;;11.00;1.40;;;;;;;0.64;94.56;101504.63;2063466;28;20035;-66
2022/04/10 04:24:44;;;;;;;12.32;1.45;;;;;;;0.66;94.45;101504.66;2063035;28;20920;-66
2022/04/10 04:25:45;;;;;;;17.48;1.50;;;;;;;0.65;93.82;101519.59;2063439;28;20077;-66
2022/04/10 04:26:47;;;;;;;12.68;1.17;;;;;;;0.61;93.75;101515.09;2054797;28;20039;-67
2022/04/10 04:27:51;;;;;;;11.82;1.35;;;;;;;0.58;94.11;101517.66;2055198;28;20157;-66
2022/04/10 04:28:53;;;;;;;10.55;1.10;;;;;;;0.59;94.62;101510.63;2062783;28;27830;-66
2022/04/10 04:29:56;;;;;;;13.75;1.63;;;;;;;0.59;93.83;101514.13;2055600;28;20200;-66
2022/04/10 04:31:00;;;;;;;14.88;1.42;;;;;;;0.60;94.13;101520.31;2054840;28;20043;-65
2022/04/10 04:32:04;;;;;;;7.80;1.13;;;;;;;0.57;93.39;101521.13;2054959;28;20082;-66
2022/04/10 04:33:06;;;;;;;11.07;1.45;;;;;;;0.56;93.79;101516.72;2054603;28;38163;-67
2022/04/10 04:34:11;;;;;;;8.05;1.15;;;;;;;0.54;94.16;101521.94;2062674;28;20112;-66
2022/04/10 04:35:15;;;;;;;13.35;1.38;;;;;;;0.56;94.17;101520.22;2062776;28;20786;-67
2022/04/10 04:36:17;;;;;;;14.15;1.42;;;;;;;0.59;93.86;101523.78;2062799;28;20046;-66
2022/04/10 04:37:19;;;;;;;10.85;1.25;;;;;;;0.54;93.73;101531.59;2063085;28;20051;-66
2022/04/10 04:38:22;;;;;;;10.82;1.23;;;;;;;0.57;94.04;101531.66;2055208;28;20047;-66
2022/04/10 04:39:24;;;;;;;10.15;1.40;;;;;;;0.58;93.68;101530.81;2047048;28;20150;-67
2022/04/10 04:40:26;;;;;;;14.48;1.52;;;;;;;0.65;93.79;101529.25;2054627;28;35041;-66
2022/04/10 04:41:28;;;;;;;13.68;1.35;;;;;;;0.61;93.71;101536.19;2062619;28;20043;-66
2022/04/10 04:42:30;;;;;;;12.63;1.63;;;;;;;0.63;94.03;101545.00;2062916;28;20051;-66
2022/04/10 04:43:32;;;;;;;11.57;1.67;;;;;;;0.65;93.70;101551.22;2062831;28;20042;-66
2022/04/10 04:44:36;;;;;;;13.57;1.73;;;;;;;0.67;94.10;101544.25;2062962;28;20161;-65
2022/04/10 04:45:38;;;;;;;15.45;1.92;;;;;;;0.64;94.19;101549.41;2062253;28;20043;-67
2022/04/10 04:46:49;;;;;;;13.77;1.63;;;;;;;0.67;93.88;101548.63;2062988;28;20886;-66
2022/04/10 04:47:51;;;;;;;12.98;2.25;;;;;;;0.69;94.15;101547.81;2053955;28;22249;-65
2022/04/10 04:48:53;;;;;;;12.50;1.95;;;;;;;0.76;94.22;101549.75;2054815;28;20047;-65
2022/04/10 04:49:55;;;;;;;10.95;2.20;;;;;;;0.78;94.17;101560.34;2062152;28;43909;-66
2022/04/10 04:51:02;;;;;;;12.60;1.92;;;;;;;0.81;94.10;101551.63;2055195;28;20054;-66
2022/04/10 04:52:05;;;;;;;11.32;1.67;;;;;;;0.78;94.30;101557.72;2055607;28;20840;-66
2022/04/10 04:53:08;;;;;;;12.75;1.77;;;;;;;0.83;94.09;101545.56;2062912;28;20884;-66
2022/04/10 04:54:10;;;;;;;13.50;1.95;;;;;;;0.83;93.92;101550.81;2062856;28;20553;-66
2022/04/10 04:55:14;;;;;;;10.57;1.65;;;;;;;0.88;94.33;101553.56;2054933;28;20095;-66